Time;durP1;ratioP1;P1;durP2;ratioP2;P2;SDS_P1;SDS_P2;PMS_P1;PMS_P2;Temp;Humidity;BMP_temperature;BMP_pressure;BME280_temperature;BME280_humidity;BME280_pressure;Samples;Min_cycle;Max_cycle;Signal;HPM_P1;HPM_P2
2022/05/07 00:00:49;;;;;;;;;;;11.30;99.90;;;;;;5036070;28;19909;-71
2022/05/07 00:03:15;;;;;;;;;;;11.20;99.90;;;;;;5035390;28;19959;-70
2022/05/07 00:05:40;;;;;;;;;;;11.10;99.90;;;;;;5017620;28;19905;-71
2022/05/07 00:08:06;;;;;;;;;;;11.00;99.90;;;;;;5035354;28;19912;-69
2022/05/07 00:10:31;;;;;;;;;;;10.90;99.90;;;;;;5035517;28;19912;-71
2022/05/07 00:12:57;;;;;;;;;;;10.80;99.90;;;;;;5035254;28;20425;-70
2022/05/07 00:15:23;;;;;;;;;;;10.80;99.90;;;;;;5035151;28;19911;-70
2022/05/07 00:18:05;;;;;;;;;;;10.80;99.90;;;;;;5035172;28;19905;-70
2022/05/07 00:20:32;;;;;;;;;;;10.80;99.90;;;;;;5035410;28;19912;-70
2022/05/07 00:22:58;;;;;;;;;;;10.70;99.90;;;;;;5035059;28;19905;-69
2022/05/07 00:25:24;;;;;;;;;;;10.70;99.90;;;;;;5034655;28;20000;-72
2022/05/07 00:27:50;;;;;;;;;;;10.70;99.90;;;;;;5034978;28;20274;-71
2022/05/07 00:30:15;;;;;;;;;;;10.60;99.90;;;;;;5017243;28;19952;-71
2022/05/07 00:32:41;;;;;;;;;;;10.60;99.90;;;;;;5035125;28;19960;-70
2022/05/07 00:35:07;;;;;;;;;;;10.80;99.90;;;;;;5034818;28;19904;-70
2022/05/07 00:37:32;;;;;;;;;;;10.80;99.90;;;;;;5035082;28;20388;-71
2022/05/07 00:39:58;;;;;;;;;;;10.80;99.90;;;;;;5034752;28;19909;-69
2022/05/07 00:42:23;;;;;;;;;;;10.80;99.90;;;;;;5035310;28;19969;-70
2022/05/07 00:44:49;;;;;;;;;;;10.90;99.90;;;;;;5034673;28;19905;-70
2022/05/07 00:47:15;;;;;;;;;;;10.90;99.90;;;;;;5034649;28;19913;-70
2022/05/07 00:49:41;;;;;;;;;;;10.90;99.90;;;;;;5034783;28;19905;-70
2022/05/07 00:52:07;;;;;;;;;;;10.80;99.90;;;;;;5034471;28;19913;-70
2022/05/07 00:54:32;;;;;;;;;;;10.90;99.90;;;;;;5016803;28;20058;-70
2022/05/07 00:56:58;;;;;;;;;;;10.80;99.90;;;;;;5034482;28;19915;-71
2022/05/07 00:59:23;;;;;;;;;;;10.80;99.90;;;;;;5034442;28;20003;-70
2022/05/07 01:01:49;;;;;;;;;;;10.80;99.90;;;;;;5034363;28;20317;-70
2022/05/07 01:04:15;;;;;;;;;;;10.80;99.90;;;;;;5034305;28;19905;-70
2022/05/07 01:06:41;;;;;;;;;;;10.80;99.90;;;;;;5034083;28;20345;-71
2022/05/07 01:09:07;;;;;;;;;;;10.70;99.90;;;;;;5034776;28;19975;-70
2022/05/07 01:11:34;;;;;;;;;;;10.70;99.90;;;;;;5034124;28;19909;-70
2022/05/07 01:13:59;;;;;;;;;;;10.70;99.90;;;;;;5034407;28;19951;-70
2022/05/07 01:16:25;;;;;;;;;;;10.70;99.90;;;;;;5034048;28;19905;-71
2022/05/07 01:18:50;;;;;;;;;;;10.70;99.90;;;;;;5034338;28;20289;-71
2022/05/07 01:21:17;;;;;;;;;;;10.70;99.90;;;;;;5016329;28;19905;-70
2022/05/07 01:23:43;;;;;;;;;;;10.60;99.90;;;;;;5033811;28;19909;-70
2022/05/07 01:26:09;;;;;;;;;;;10.70;99.90;;;;;;5034240;28;19912;-71
2022/05/07 01:28:35;;;;;;;;;;;10.70;99.90;;;;;;5033956;28;20370;-71
2022/05/07 01:31:00;;;;;;;;;;;10.70;99.90;;;;;;5034404;28;19913;-69
2022/05/07 01:33:26;;;;;;;;;;;10.80;99.90;;;;;;5034155;28;19905;-70
2022/05/07 01:35:51;;;;;;;;;;;10.80;99.90;;;;;;5034115;28;20273;-70
2022/05/07 01:38:17;;;;;;;;;;;10.80;99.90;;;;;;5033812;28;20000;-70
2022/05/07 01:40:42;;;;;;;;;;;10.80;99.90;;;;;;5034054;28;20003;-70
2022/05/07 01:43:08;;;;;;;;;;;10.80;99.90;;;;;;5034086;28;20000;-70
2022/05/07 01:45:33;;;;;;;;;;;10.80;99.90;;;;;;5016071;28;19913;-70
2022/05/07 01:48:11;;;;;;;;;;;10.80;99.90;;;;;;5033984;28;20035;-70
2022/05/07 01:50:41;;;;;;;;;;;10.80;99.90;;;;;;5033932;28;19912;-70
2022/05/07 01:53:07;;;;;;;;;;;10.80;99.90;;;;;;5034212;28;19905;-69
2022/05/07 01:55:33;;;;;;;;;;;10.70;99.90;;;;;;5033617;28;19905;-69
2022/05/07 01:57:59;;;;;;;;;;;10.70;99.90;;;;;;5033859;28;19908;-70
2022/05/07 02:00:24;;;;;;;;;;;10.70;99.90;;;;;;5033583;28;19912;-70
2022/05/07 02:02:50;;;;;;;;;;;10.70;99.90;;;;;;5037574;28;19909;-70
2022/05/07 02:05:15;;;;;;;;;;;10.70;99.90;;;;;;5037644;28;19995;-71
2022/05/07 02:07:41;;;;;;;;;;;10.70;99.90;;;;;;5037623;28;20281;-70
2022/05/07 02:10:07;;;;;;;;;;;10.60;99.90;;;;;;5038143;28;20354;-70
2022/05/07 02:12:32;;;;;;;;;;;10.70;99.90;;;;;;5037370;28;19944;-71
2022/05/07 02:14:58;;;;;;;;;;;10.70;99.90;;;;;;5037416;28;19931;-70
2022/05/07 02:17:23;;;;;;;;;;;10.70;99.90;;;;;;5037722;28;19905;-71
2022/05/07 02:19:49;;;;;;;;;;;10.70;99.90;;;;;;5037424;28;19905;-71
2022/05/07 02:22:14;;;;;;;;;;;10.70;99.90;;;;;;5037682;28;19905;-71
2022/05/07 02:24:40;;;;;;;;;;;10.60;99.90;;;;;;5037210;28;20369;-70
2022/05/07 02:27:05;;;;;;;;;;;10.60;99.90;;;;;;5037849;28;19905;-70
2022/05/07 02:29:31;;;;;;;;;;;10.60;99.90;;;;;;5037232;28;19909;-70
2022/05/07 02:32:06;;;;;;;;;;;10.60;99.90;;;;;;5037102;28;19982;-70
2022/05/07 02:34:35;;;;;;;;;;;10.60;99.90;;;;;;5019156;28;19905;-70
2022/05/07 02:37:02;;;;;;;;;;;10.60;99.90;;;;;;5037119;28;19991;-70
2022/05/07 02:39:27;;;;;;;;;;;10.60;99.90;;;;;;5037053;28;19905;-71
2022/05/07 02:44:36;;;;;;;;;;;10.60;99.90;;;;;;5036991;28;19912;-70
2022/05/07 02:47:03;;;;;;;;;;;10.50;99.90;;;;;;5036891;28;19905;-70
2022/05/07 02:49:29;;;;;;;;;;;10.60;99.90;;;;;;5037142;28;19905;-71
2022/05/07 02:51:54;;;;;;;;;;;10.60;99.90;;;;;;5036757;28;19909;-70
2022/05/07 02:54:20;;;;;;;;;;;10.70;99.90;;;;;;5037029;28;19959;-70
2022/05/07 02:56:45;;;;;;;;;;;10.60;99.90;;;;;;5036747;28;20277;-70
2022/05/07 02:59:10;;;;;;;;;;;10.60;99.90;;;;;;5036988;28;20358;-71
2022/05/07 03:01:36;;;;;;;;;;;10.50;99.90;;;;;;5036625;28;19912;-70
2022/05/07 03:04:02;;;;;;;;;;;10.50;99.90;;;;;;5036862;28;19962;-70
2022/05/07 03:06:27;;;;;;;;;;;10.60;99.90;;;;;;5036578;28;20491;-70
2022/05/07 03:08:52;;;;;;;;;;;10.60;99.90;;;;;;5036737;28;19912;-70
2022/05/07 03:11:18;;;;;;;;;;;10.50;99.90;;;;;;5036374;28;20357;-69
2022/05/07 03:13:44;;;;;;;;;;;10.50;99.90;;;;;;5035058;28;19983;-70
2022/05/07 03:16:09;;;;;;;;;;;10.50;99.90;;;;;;5036306;28;19991;-70
2022/05/07 03:18:35;;;;;;;;;;;10.50;99.90;;;;;;5036305;28;19905;-70
2022/05/07 03:21:01;;;;;;;;;;;10.50;99.90;;;;;;5036243;28;19995;-70
2022/05/07 03:23:26;;;;;;;;;;;10.60;99.90;;;;;;5036250;28;19940;-70
2022/05/07 03:25:52;;;;;;;;;;;10.70;99.90;;;;;;5036531;28;20428;-70
2022/05/07 03:28:18;;;;;;;;;;;10.70;99.90;;;;;;5034884;28;19928;-70
2022/05/07 03:30:43;;;;;;;;;;;10.70;99.90;;;;;;5036002;28;19944;-70
2022/05/07 03:33:09;;;;;;;;;;;10.80;99.90;;;;;;5036037;28;19996;-70
2022/05/07 03:35:34;;;;;;;;;;;10.80;99.90;;;;;;5035983;28;19988;-70
2022/05/07 03:38:00;;;;;;;;;;;10.90;99.90;;;;;;5036204;28;19909;-71
2022/05/07 03:40:27;;;;;;;;;;;10.90;99.90;;;;;;5035901;28;19912;-69
2022/05/07 03:42:53;;;;;;;;;;;10.90;99.90;;;;;;5036124;28;19905;-70
2022/05/07 03:45:19;;;;;;;;;;;11.00;99.90;;;;;;5035786;28;19905;-70
2022/05/07 03:47:45;;;;;;;;;;;11.00;99.90;;;;;;5036336;28;20361;-71
2022/05/07 03:50:10;;;;;;;;;;;10.90;99.90;;;;;;5017967;28;19913;-70
2022/05/07 03:55:20;;;;;;;;;;;10.90;99.90;;;;;;5035671;28;19959;-71
2022/05/07 03:57:46;;;;;;;;;;;10.90;99.90;;;;;;5035587;28;19909;-70
2022/05/07 04:00:11;;;;;;;;;;;11.00;99.90;;;;;;5035813;28;20062;-70
2022/05/07 04:02:37;;;;;;;;;;;11.00;99.90;;;;;;5035426;28;19905;-71
2022/05/07 04:05:03;;;;;;;;;;;11.10;99.90;;;;;;5035444;28;19905;-71
2022/05/07 04:07:28;;;;;;;;;;;11.10;99.90;;;;;;5035391;28;19962;-70
2022/05/07 04:09:55;;;;;;;;;;;11.10;99.90;;;;;;5035902;28;19913;-71
2022/05/07 04:12:23;;;;;;;;;;;11.20;99.90;;;;;;5035243;28;19912;-70
2022/05/07 04:14:49;;;;;;;;;;;11.20;99.90;;;;;;5035196;28;19912;-70
2022/05/07 04:17:15;;;;;;;;;;;11.20;99.90;;;;;;5035184;28;20273;-71
2022/05/07 04:19:40;;;;;;;;;;;11.30;99.90;;;;;;5035152;28;19909;-70
2022/05/07 04:22:06;;;;;;;;;;;11.30;99.90;;;;;;5035374;28;19905;-70
2022/05/07 04:24:33;;;;;;;;;;;11.40;99.90;;;;;;5034462;28;19959;-71
2022/05/07 04:26:59;;;;;;;;;;;11.40;99.90;;;;;;5035605;28;19958;-70
2022/05/07 04:29:24;;;;;;;;;;;11.40;99.90;;;;;;5035004;28;19905;-70
2022/05/07 04:31:50;;;;;;;;;;;11.40;99.90;;;;;;5034923;28;19924;-70
2022/05/07 04:34:15;;;;;;;;;;;11.40;99.90;;;;;;5035178;28;20002;-70
2022/05/07 04:36:42;;;;;;;;;;;11.50;99.90;;;;;;5035144;28;19905;-71
2022/05/07 04:39:07;;;;;;;;;;;11.50;99.90;;;;;;5034854;28;19905;-70
2022/05/07 04:41:33;;;;;;;;;;;11.60;99.90;;;;;;5034814;28;19936;-71
2022/05/07 04:44:01;;;;;;;;;;;11.60;99.90;;;;;;5034699;28;19905;-70
2022/05/07 04:46:26;;;;;;;;;;;11.50;99.90;;;;;;5034945;28;19905;-70
2022/05/07 04:48:52;;;;;;;;;;;11.50;99.90;;;;;;5034899;28;19928;-71
2022/05/07 04:51:17;;;;;;;;;;;11.60;99.90;;;;;;5034501;28;19909;-71
2022/05/07 04:53:44;;;;;;;;;;;11.70;99.90;;;;;;5034516;28;19951;-70
2022/05/07 04:56:10;;;;;;;;;;;11.70;99.90;;;;;;5016820;28;20386;-69
2022/05/07 04:58:35;;;;;;;;;;;11.70;99.90;;;;;;5034451;28;19905;-70
2022/05/07 05:01:01;;;;;;;;;;;11.70;99.90;;;;;;5034684;28;19909;-70
2022/05/07 05:03:26;;;;;;;;;;;11.70;99.90;;;;;;5034368;28;19911;-71
2022/05/07 05:05:52;;;;;;;;;;;11.80;99.90;;;;;;5034342;28;19905;-70
2022/05/07 05:08:17;;;;;;;;;;;11.90;99.90;;;;;;5034551;28;19911;-70
2022/05/07 05:10:43;;;;;;;;;;;12.00;99.90;;;;;;5034144;28;19905;-70
2022/05/07 05:13:09;;;;;;;;;;;12.00;99.90;;;;;;5034455;28;19912;-71
2022/05/07 05:15:35;;;;;;;;;;;12.00;99.90;;;;;;5034094;28;20269;-70
2022/05/07 05:18:00;;;;;;;;;;;12.10;99.90;;;;;;5034069;28;19998;-72
2022/05/07 05:20:26;;;;;;;;;;;12.20;99.90;;;;;;5016285;28;19912;-70
2022/05/07 05:22:52;;;;;;;;;;;12.20;99.90;;;;;;5034295;28;19959;-70
2022/05/07 05:25:19;;;;;;;;;;;12.20;99.90;;;;;;5033834;28;19995;-70
2022/05/07 05:27:45;;;;;;;;;;;12.20;99.90;;;;;;5034278;28;19992;-70
2022/05/07 05:30:11;;;;;;;;;;;12.30;99.90;;;;;;5033960;28;20392;-71
2022/05/07 05:32:36;;;;;;;;;;;12.20;99.90;;;;;;5033837;28;19913;-70
2022/05/07 05:35:03;;;;;;;;;;;12.30;99.90;;;;;;5033978;28;19910;-71
2022/05/07 05:37:30;;;;;;;;;;;12.30;99.90;;;;;;5033586;28;19991;-71
2022/05/07 05:39:55;;;;;;;;;;;12.40;99.90;;;;;;5016074;28;20289;-71
2022/05/07 05:42:21;;;;;;;;;;;12.50;99.90;;;;;;5034106;28;19916;-69
2022/05/07 05:44:46;;;;;;;;;;;12.40;99.90;;;;;;5033783;28;19943;-70
2022/05/07 05:47:12;;;;;;;;;;;12.40;99.90;;;;;;5033718;28;19905;-70
2022/05/07 05:49:37;;;;;;;;;;;12.60;99.90;;;;;;5034253;28;20383;-71
2022/05/07 05:52:04;;;;;;;;;;;12.70;99.90;;;;;;5033597;28;19909;-71
2022/05/07 05:54:30;;;;;;;;;;;12.80;99.90;;;;;;5032266;28;20030;-71
2022/05/07 05:56:56;;;;;;;;;;;12.90;99.90;;;;;;5033590;28;19940;-69
2022/05/07 05:59:21;;;;;;;;;;;13.00;99.90;;;;;;5033628;28;19905;-70
2022/05/07 06:01:47;;;;;;;;;;;13.10;99.90;;;;;;5034110;28;19905;-70
2022/05/07 06:04:14;;;;;;;;;;;13.30;99.90;;;;;;5033568;28;19905;-70
2022/05/07 06:06:39;;;;;;;;;;;13.40;99.90;;;;;;5034115;28;19948;-71
2022/05/07 06:09:05;;;;;;;;;;;13.70;99.90;;;;;;5033585;28;20388;-71
2022/05/07 06:11:30;;;;;;;;;;;13.80;99.90;;;;;;5033742;28;19986;-70
2022/05/07 06:13:56;;;;;;;;;;;13.80;99.90;;;;;;5033460;28;19905;-71
2022/05/07 06:16:21;;;;;;;;;;;13.80;99.90;;;;;;5033433;28;19905;-71
2022/05/07 06:18:47;;;;;;;;;;;13.80;99.90;;;;;;5033722;28;19905;-70
2022/05/07 06:21:12;;;;;;;;;;;13.70;99.90;;;;;;5033400;28;19912;-70
2022/05/07 06:23:38;;;;;;;;;;;13.80;99.90;;;;;;5033416;28;20051;-69
2022/05/07 06:28:47;;;;;;;;;;;13.80;99.90;;;;;;5033381;28;20265;-70
2022/05/07 06:31:13;;;;;;;;;;;13.60;99.90;;;;;;5033238;28;19913;-71
2022/05/07 06:33:38;;;;;;;;;;;13.60;99.90;;;;;;5033325;28;20007;-70
2022/05/07 06:36:05;;;;;;;;;;;13.50;99.90;;;;;;5033548;28;20342;-70
2022/05/07 06:38:30;;;;;;;;;;;13.50;99.90;;;;;;5033281;28;19996;-71
2022/05/07 06:41:01;;;;;;;;;;;13.40;99.90;;;;;;5033567;28;19971;-70
2022/05/07 06:43:28;;;;;;;;;;;13.60;99.90;;;;;;5033274;28;20316;-69
2022/05/07 06:45:53;;;;;;;;;;;13.70;99.90;;;;;;5033738;28;20373;-70
2022/05/07 06:48:19;;;;;;;;;;;14.00;99.90;;;;;;5035738;28;19905;-69
2022/05/07 06:50:44;;;;;;;;;;;14.30;99.90;;;;;;5037047;28;19955;-70
2022/05/07 06:53:10;;;;;;;;;;;14.60;99.90;;;;;;5036788;28;20292;-70
2022/05/07 06:55:54;;;;;;;;;;;14.80;99.90;;;;;;5037262;28;19905;-70
2022/05/07 06:58:24;;;;;;;;;;;14.90;99.90;;;;;;5036987;28;20059;-70
2022/05/07 07:00:49;;;;;;;;;;;14.70;99.90;;;;;;5037079;28;19955;-71
2022/05/07 07:03:15;;;;;;;;;;;14.60;99.90;;;;;;5036871;28;19909;-70
2022/05/07 07:05:40;;;;;;;;;;;14.90;99.90;;;;;;5037132;28;19905;-71
2022/05/07 07:08:06;;;;;;;;;;;15.60;99.90;;;;;;5036472;28;20281;-71
2022/05/07 07:10:32;;;;;;;;;;;16.60;99.90;;;;;;5036390;28;19912;-71
2022/05/07 07:12:57;;;;;;;;;;;17.20;99.90;;;;;;5018539;28;20329;-70
2022/05/07 07:15:23;;;;;;;;;;;17.90;99.90;;;;;;5036350;28;20266;-71
2022/05/07 07:17:49;;;;;;;;;;;19.00;99.90;;;;;;5036359;28;19927;-71
2022/05/07 07:20:15;;;;;;;;;;;22.10;99.90;;;;;;5036552;28;20354;-70
2022/05/07 07:22:41;;;;;;;;;;;24.10;99.90;;;;;;5036260;28;20395;-71
2022/05/07 07:25:06;;;;;;;;;;;24.90;98.10;;;;;;5036053;28;19996;-71
2022/05/07 07:27:34;;;;;;;;;;;23.40;98.60;;;;;;5036718;28;20357;-71
2022/05/07 07:29:59;;;;;;;;;;;22.20;99.90;;;;;;5036110;28;19905;-71
2022/05/07 07:32:25;;;;;;;;;;;21.50;99.90;;;;;;5036509;28;19913;-70
2022/05/07 07:34:51;;;;;;;;;;;21.00;99.90;;;;;;5036303;28;19909;-71
2022/05/07 07:37:16;;;;;;;;;;;21.00;99.90;;;;;;5018208;28;19983;-72
2022/05/07 07:39:42;;;;;;;;;;;21.10;99.90;;;;;;5036510;28;19939;-71
2022/05/07 07:42:08;;;;;;;;;;;20.80;99.90;;;;;;5036161;28;20274;-70
2022/05/07 07:44:33;;;;;;;;;;;20.40;99.90;;;;;;5035862;28;19906;-70
2022/05/07 07:49:43;;;;;;;;;;;20.00;99.90;;;;;;5035804;28;19912;-71
2022/05/07 07:52:09;;;;;;;;;;;19.70;99.90;;;;;;5035625;28;19913;-71
2022/05/07 07:54:34;;;;;;;;;;;18.80;99.90;;;;;;5035655;28;19905;-70
2022/05/07 07:57:02;;;;;;;;;;;18.60;99.90;;;;;;5035890;28;19909;-70
2022/05/07 07:59:29;;;;;;;;;;;18.70;99.90;;;;;;5017034;28;19958;-70
2022/05/07 08:01:56;;;;;;;;;;;21.20;99.90;;;;;;5035797;28;20272;-70
2022/05/07 08:04:25;;;;;;;;;;;20.60;99.90;;;;;;5035444;28;20377;-70
2022/05/07 08:12:57;;;;;;;;;;;17.90;99.90;;;;;;4955037;29;19914;-71
2022/05/07 08:15:23;;;;;;;;;;;17.70;99.90;;;;;;5012821;28;20467;-70
2022/05/07 08:17:51;;;;;;;;;;;17.50;99.90;;;;;;5017469;28;19912;-71
2022/05/07 08:20:16;;;;;;;;;;;17.60;99.90;;;;;;5035221;28;20003;-70
2022/05/07 08:22:42;;;;;;;;;;;17.80;99.90;;;;;;5035700;28;20361;-71
2022/05/07 08:25:08;;;;;;;;;;;18.00;99.90;;;;;;5034679;28;19971;-71
2022/05/07 08:27:33;;;;;;;;;;;18.10;99.90;;;;;;5034997;28;19984;-71
2022/05/07 08:29:59;;;;;;;;;;;18.30;99.90;;;;;;5035266;28;19905;-71
2022/05/07 08:32:24;;;;;;;;;;;18.50;99.90;;;;;;5034864;28;19943;-71
2022/05/07 08:34:50;;;;;;;;;;;18.80;99.90;;;;;;5034925;28;20361;-71
2022/05/07 08:37:15;;;;;;;;;;;19.00;99.90;;;;;;5035206;28;19914;-71
2022/05/07 08:39:41;;;;;;;;;;;19.00;99.90;;;;;;5034822;28;19996;-71
2022/05/07 08:42:07;;;;;;;;;;;18.90;99.90;;;;;;5035113;28;19996;-71
2022/05/07 08:44:33;;;;;;;;;;;18.60;99.90;;;;;;5034714;28;19905;-70
2022/05/07 08:46:59;;;;;;;;;;;18.50;99.90;;;;;;5034680;28;19916;-70
2022/05/07 08:49:25;;;;;;;;;;;18.50;99.90;;;;;;5034914;28;19905;-71
2022/05/07 08:51:53;;;;;;;;;;;18.70;99.90;;;;;;5034764;28;20288;-71
2022/05/07 08:54:18;;;;;;;;;;;19.20;99.90;;;;;;5034262;28;19909;-74
2022/05/07 08:56:44;;;;;;;;;;;19.50;99.90;;;;;;5034500;28;20283;-72
2022/05/07 08:59:09;;;;;;;;;;;20.40;99.90;;;;;;5034408;28;19905;-76
2022/05/07 09:01:35;;;;;;;;;;;21.20;99.90;;;;;;5032937;28;20383;-74
2022/05/07 09:04:09;;;;;;;;;;;21.90;99.90;;;;;;5034339;28;19976;-72
2022/05/07 09:06:35;;;;;;;;;;;21.90;99.90;;;;;;5032715;28;19905;-73
2022/05/07 09:09:03;;;;;;;;;;;21.20;99.90;;;;;;5034405;28;19916;-72
2022/05/07 09:11:37;;;;;;;;;;;20.90;99.90;;;;;;5034119;28;19971;-71
2022/05/07 09:14:04;;;;;;;;;;;20.80;99.90;;;;;;5034406;28;19905;-72
2022/05/07 09:16:48;;;;;;;;;;;20.90;99.90;;;;;;5034007;28;19940;-73
2022/05/07 09:19:25;;;;;;;;;;;20.60;99.90;;;;;;5034675;28;19904;-70
2022/05/07 09:21:54;;;;;;;;;;;21.00;99.90;;;;;;5034348;28;20277;-70
2022/05/07 09:24:21;;;;;;;;;;;21.30;99.90;;;;;;5033769;28;19920;-73
2022/05/07 09:26:47;;;;;;;;;;;21.20;99.90;;;;;;5016714;28;19905;-70
2022/05/07 09:29:14;;;;;;;;;;;20.90;99.90;;;;;;5034148;28;20289;-73
2022/05/07 09:31:44;;;;;;;;;;;20.70;99.90;;;;;;5016569;28;20293;-72
2022/05/07 09:37:01;;;;;;;;;;;22.00;99.90;;;;;;5034142;28;19963;-77
2022/05/07 09:39:33;;;;;;;;;;;21.80;99.90;;;;;;5034048;28;20302;-77
2022/05/07 09:42:03;;;;;;;;;;;21.60;99.90;;;;;;5033761;28;19909;-81
2022/05/07 09:44:28;;;;;;;;;;;21.90;99.90;;;;;;5034338;28;20388;-73
2022/05/07 09:46:55;;;;;;;;;;;22.30;99.90;;;;;;5033716;28;19905;-73
2022/05/07 09:49:22;;;;;;;;;;;22.50;99.90;;;;;;5034037;28;19959;-75
2022/05/07 09:51:49;;;;;;;;;;;23.10;99.80;;;;;;5033588;28;19995;-76
2022/05/07 09:59:45;;;;;;;;;;;25.10;96.90;;;;;;5033572;28;19960;-70
2022/05/07 10:02:29;;;;;;;;;;;25.80;95.20;;;;;;5015860;28;20037;-75
2022/05/07 10:05:04;;;;;;;;;;;25.70;94.90;;;;;;5033475;28;20341;-75
2022/05/07 10:07:34;;;;;;;;;;;28.30;91.40;;;;;;5033782;28;19950;-74
2022/05/07 10:10:07;;;;;;;;;;;29.40;91.20;;;;;;5032539;28;19905;-75
2022/05/07 10:12:33;;;;;;;;;;;32.00;83.20;;;;;;5032864;28;20289;-75
2022/05/07 10:15:09;;;;;;;;;;;33.60;73.00;;;;;;5033062;28;19909;-74
2022/05/07 10:17:35;;;;;;;;;;;31.30;72.30;;;;;;5033124;28;19960;-74
2022/05/07 10:20:09;;;;;;;;;;;29.20;74.10;;;;;;5033046;28;19909;-74
2022/05/07 10:22:35;;;;;;;;;;;27.80;78.00;;;;;;5034775;28;19975;-75
2022/05/07 10:25:11;;;;;;;;;;;31.40;77.00;;;;;;5036932;28;19923;-75
2022/05/07 10:27:43;;;;;;;;;;;32.80;72.30;;;;;;5037780;28;19905;-75
2022/05/07 10:30:16;;;;;;;;;;;31.60;69.70;;;;;;5037201;28;20440;-75
2022/05/07 10:32:58;;;;;;;;;;;31.10;71.20;;;;;;5037081;28;19920;-75
2022/05/07 10:35:42;;;;;;;;;;;34.80;67.10;;;;;;5019431;28;19905;-75
2022/05/07 10:38:09;;;;;;;;;;;34.90;62.60;;;;;;5019278;28;19948;-74
2022/05/07 10:40:35;;;;;;;;;;;31.70;64.20;;;;;;5037010;28;19905;-74
2022/05/07 10:43:00;;;;;;;;;;;30.00;66.70;;;;;;5037113;28;19916;-74
2022/05/07 10:45:29;;;;;;;;;;;28.80;70.00;;;;;;5036958;28;19905;-74
2022/05/07 10:47:54;;;;;;;;;;;27.20;72.70;;;;;;5037439;28;19905;-73
2022/05/07 10:50:21;;;;;;;;;;;25.90;75.60;;;;;;5036874;28;20012;-74
2022/05/07 10:52:53;;;;;;;;;;;24.80;78.30;;;;;;5019003;28;19916;-74
2022/05/07 10:55:23;;;;;;;;;;;27.50;75.80;;;;;;5037122;28;19995;-75
2022/05/07 10:57:49;;;;;;;;;;;32.90;71.20;;;;;;5037048;28;20352;-75
2022/05/07 11:00:17;;;;;;;;;;;37.00;63.40;;;;;;5036720;28;19932;-75
2022/05/07 11:02:43;;;;;;;;;;;35.80;61.20;;;;;;5036635;28;19905;-74
2022/05/07 11:05:11;;;;;;;;;;;33.40;61.70;;;;;;5036653;28;19905;-75
2022/05/07 11:07:37;;;;;;;;;;;30.80;64.40;;;;;;5036602;28;20345;-74
2022/05/07 11:10:03;;;;;;;;;;;27.90;69.30;;;;;;5037130;28;19994;-73
2022/05/07 11:12:28;;;;;;;;;;;25.90;72.40;;;;;;5036339;28;19909;-74
2022/05/07 11:14:54;;;;;;;;;;;24.40;77.20;;;;;;5036396;28;19905;-73
2022/05/07 11:17:30;;;;;;;;;;;23.20;82.50;;;;;;5036681;28;19972;-74
2022/05/07 11:19:57;;;;;;;;;;;22.50;84.10;;;;;;5036284;28;19999;-73
2022/05/07 11:22:30;;;;;;;;;;;22.40;85.60;;;;;;5036294;28;19905;-74
2022/05/07 11:25:05;;;;;;;;;;;25.10;85.10;;;;;;5036157;28;19956;-74
2022/05/07 11:27:34;;;;;;;;;;;30.50;76.00;;;;;;5018232;28;19968;-74
2022/05/07 11:30:01;;;;;;;;;;;31.40;68.70;;;;;;5036169;28;19955;-73
2022/05/07 11:32:40;;;;;;;;;;;28.50;70.80;;;;;;5036349;28;19920;-73
2022/05/07 11:35:06;;;;;;;;;;;26.90;72.20;;;;;;5034875;28;20358;-74
2022/05/07 11:37:44;;;;;;;;;;;31.20;70.80;;;;;;5036238;28;19905;-74
2022/05/07 11:40:10;;;;;;;;;;;33.50;66.00;;;;;;5035957;28;19905;-74
2022/05/07 11:42:39;;;;;;;;;;;33.40;63.70;;;;;;5036193;28;20309;-74
2022/05/07 11:45:27;;;;;;;;;;;31.10;64.10;;;;;;5035915;28;19905;-74
2022/05/07 11:47:53;;;;;;;;;;;29.10;68.20;;;;;;5036161;28;19905;-73
2022/05/07 11:50:24;;;;;;;;;;;28.10;69.60;;;;;;5018022;28;20420;-73
2022/05/07 11:52:49;;;;;;;;;;;27.40;71.20;;;;;;5035738;28;19909;-74
2022/05/07 11:55:17;;;;;;;;;;;27.10;70.90;;;;;;5035732;28;20374;-73
2022/05/07 11:57:46;;;;;;;;;;;26.30;72.40;;;;;;5035656;28;20368;-74
2022/05/07 12:00:16;;;;;;;;;;;25.80;74.10;;;;;;5035586;28;19909;-74
2022/05/07 12:03:08;;;;;;;;;;;24.70;78.30;;;;;;5036106;28;19905;-73
2022/05/07 12:05:38;;;;;;;;;;;23.00;81.20;;;;;;5032700;28;20369;-74
2022/05/07 12:08:11;;;;;;;;;;;22.00;85.10;;;;;;5034227;28;19951;-73
2022/05/07 12:10:36;;;;;;;;;;;22.30;83.70;;;;;;5036043;28;19912;-73
2022/05/07 12:13:02;;;;;;;;;;;22.40;83.50;;;;;;5035275;28;19909;-73
2022/05/07 12:18:11;;;;;;;;;;;21.90;86.30;;;;;;5035114;28;20004;-73
2022/05/07 12:20:37;;;;;;;;;;;22.40;87.30;;;;;;5035246;28;19943;-73
2022/05/07 12:31:15;;;;;;;;;;;22.60;82.90;;;;;;5034448;28;19959;-74
2022/05/07 12:33:40;;;;;;;;;;;23.50;82.20;;;;;;5034428;28;19909;-74
2022/05/07 12:36:06;;;;;;;;;;;23.70;80.60;;;;;;5016647;28;20285;-73
2022/05/07 12:38:31;;;;;;;;;;;23.90;80.70;;;;;;5034750;28;19999;-74
2022/05/07 12:40:57;;;;;;;;;;;24.20;80.20;;;;;;5034768;28;20003;-74
2022/05/07 12:43:22;;;;;;;;;;;23.70;79.90;;;;;;5034627;28;19905;-74
2022/05/07 12:45:49;;;;;;;;;;;23.60;79.60;;;;;;5034787;28;19905;-73
2022/05/07 12:48:15;;;;;;;;;;;23.30;79.20;;;;;;5034707;28;20002;-73
2022/05/07 12:50:40;;;;;;;;;;;22.80;80.10;;;;;;5034671;28;19909;-74
2022/05/07 12:53:06;;;;;;;;;;;23.00;81.80;;;;;;5034517;28;19959;-74
2022/05/07 12:55:32;;;;;;;;;;;22.60;80.80;;;;;;5034546;28;19905;-74
2022/05/07 12:57:58;;;;;;;;;;;22.40;81.80;;;;;;5034663;28;19911;-73
2022/05/07 13:00:23;;;;;;;;;;;22.70;81.00;;;;;;5034434;28;19905;-74
2022/05/07 13:02:52;;;;;;;;;;;22.90;82.10;;;;;;5034384;28;19921;-74
2022/05/07 13:05:18;;;;;;;;;;;22.30;84.70;;;;;;5034338;28;20316;-73
2022/05/07 13:07:43;;;;;;;;;;;21.90;83.50;;;;;;5034565;28;19905;-74
2022/05/07 13:10:09;;;;;;;;;;;22.10;84.40;;;;;;5016570;28;19905;-74
2022/05/07 13:12:35;;;;;;;;;;;22.20;84.90;;;;;;5034473;28;19999;-73
2022/05/07 13:15:01;;;;;;;;;;;22.10;82.50;;;;;;5034090;28;19905;-74
2022/05/07 13:17:26;;;;;;;;;;;22.00;82.60;;;;;;5034444;28;19905;-73
2022/05/07 13:19:52;;;;;;;;;;;22.20;82.40;;;;;;5034085;28;19912;-74
2022/05/07 13:22:18;;;;;;;;;;;21.80;82.80;;;;;;5034663;28;19912;-74
2022/05/07 13:24:43;;;;;;;;;;;21.80;81.80;;;;;;5033814;28;19999;-73
2022/05/07 13:27:09;;;;;;;;;;;22.10;83.10;;;;;;5016194;28;19912;-74
2022/05/07 13:29:34;;;;;;;;;;;22.10;81.60;;;;;;5034022;28;19912;-74
2022/05/07 13:32:00;;;;;;;;;;;21.70;81.70;;;;;;5033886;28;20496;-74
2022/05/07 13:34:25;;;;;;;;;;;21.60;80.40;;;;;;5034151;28;19905;-73
2022/05/07 13:36:51;;;;;;;;;;;21.40;80.60;;;;;;5033876;28;19905;-73
2022/05/07 13:39:17;;;;;;;;;;;21.20;80.10;;;;;;5034074;28;19905;-73
2022/05/07 13:41:43;;;;;;;;;;;21.60;80.80;;;;;;5016114;28;20281;-74
2022/05/07 13:44:10;;;;;;;;;;;22.10;82.40;;;;;;5034091;28;20000;-74
2022/05/07 13:46:39;;;;;;;;;;;22.60;81.20;;;;;;5033779;28;20455;-74
2022/05/07 13:49:05;;;;;;;;;;;22.90;78.50;;;;;;5034009;28;20342;-74
2022/05/07 13:51:30;;;;;;;;;;;23.40;77.20;;;;;;5033926;28;19920;-74
2022/05/07 13:53:59;;;;;;;;;;;23.40;78.80;;;;;;5033682;28;20274;-74
2022/05/07 13:56:28;;;;;;;;;;;22.60;80.30;;;;;;5033498;28;19905;-74
2022/05/07 13:58:54;;;;;;;;;;;22.30;81.70;;;;;;5033481;28;19971;-74
2022/05/07 14:01:19;;;;;;;;;;;21.80;82.70;;;;;;5034190;28;20358;-74
2022/05/07 14:03:45;;;;;;;;;;;21.60;84.10;;;;;;5015772;28;20369;-73
2022/05/07 14:06:16;;;;;;;;;;;21.70;85.00;;;;;;5033847;28;19948;-73
2022/05/07 14:08:41;;;;;;;;;;;21.70;85.30;;;;;;5015518;28;20296;-73
2022/05/07 14:11:08;;;;;;;;;;;21.70;84.70;;;;;;5033439;28;19988;-73
2022/05/07 14:13:34;;;;;;;;;;;21.80;86.40;;;;;;5033473;28;19905;-74
2022/05/07 14:15:59;;;;;;;;;;;21.50;85.30;;;;;;5033378;28;19955;-74
2022/05/07 14:18:25;;;;;;;;;;;21.50;85.10;;;;;;5015672;28;19951;-74
2022/05/07 14:20:50;;;;;;;;;;;21.30;84.70;;;;;;5033946;28;19913;-73
2022/05/07 14:23:16;;;;;;;;;;;20.90;85.20;;;;;;5033479;28;19950;-74
2022/05/07 14:25:42;;;;;;;;;;;20.70;86.30;;;;;;5033958;28;20349;-73
2022/05/07 14:28:07;;;;;;;;;;;21.20;85.90;;;;;;5033378;28;20000;-74
2022/05/07 14:30:33;;;;;;;;;;;21.30;85.00;;;;;;5032050;28;19959;-74
2022/05/07 14:32:58;;;;;;;;;;;21.40;85.00;;;;;;5033530;28;20011;-75
2022/05/07 14:35:24;;;;;;;;;;;21.60;83.10;;;;;;5033607;28;19950;-74
2022/05/07 14:37:49;;;;;;;;;;;21.70;84.10;;;;;;5033309;28;19911;-74
2022/05/07 14:40:33;;;;;;;;;;;21.50;83.80;;;;;;5033538;28;19992;-74
2022/05/07 14:43:01;;;;;;;;;;;21.50;83.60;;;;;;5033260;28;19909;-74
2022/05/07 14:45:27;;;;;;;;;;;21.30;85.00;;;;;;5033213;28;19905;-74
2022/05/07 14:47:54;;;;;;;;;;;21.40;85.60;;;;;;5033180;28;19963;-74
2022/05/07 14:50:20;;;;;;;;;;;21.40;85.00;;;;;;5033186;28;19911;-74